Time;durP1;ratioP1;P1;durP2;ratioP2;P2;SDS_P1;SDS_P2;PMS_P1;PMS_P2;Temp;Humidity;BMP_temperature;BMP_pressure;BME280_temperature;BME280_humidity;BME280_pressure;Samples;Min_cycle;Max_cycle;Signal;HPM_P1;HPM_P2
2022/09/10 00:00:33;;;;;;;27.27;22.30;;;15.30;99.90;;;;;;5053048;28;20048;-68
2022/09/10 00:03:01;;;;;;;31.70;23.60;;;15.40;99.90;;;;;;5051543;28;20053;-67
2022/09/10 00:05:27;;;;;;;31.73;23.30;;;15.40;99.90;;;;;;5036676;28;20434;-67
2022/09/10 00:07:52;;;;;;;28.45;20.77;;;15.30;99.90;;;;;;5052430;28;20128;-66
2022/09/10 00:10:19;;;;;;;28.80;23.23;;;15.30;99.90;;;;;;5052284;28;20053;-67
2022/09/10 00:12:47;;;;;;;31.00;24.55;;;15.30;99.90;;;;;;5054086;28;20045;-67
2022/09/10 00:15:14;;;;;;;34.30;23.55;;;15.20;99.90;;;;;;5052476;28;20115;-66
2022/09/10 00:17:39;;;;;;;31.13;24.98;;;15.30;99.90;;;;;;5051662;28;20037;-68
2022/09/10 00:20:06;;;;;;;32.47;22.50;;;15.30;99.90;;;;;;5053995;28;20481;-68
2022/09/10 00:22:33;;;;;;;31.40;25.20;;;15.20;99.90;;;;;;5052260;28;20112;-67
2022/09/10 00:24:58;;;;;;;40.30;27.42;;;15.30;99.90;;;;;;5053877;28;20483;-67
2022/09/10 00:27:25;;;;;;;40.60;29.35;;;15.20;99.90;;;;;;5052704;28;20142;-67
2022/09/10 00:29:52;;;;;;;35.88;27.92;;;15.30;99.90;;;;;;5052328;28;20095;-67
2022/09/10 00:32:17;;;;;;;39.17;29.05;;;15.30;99.90;;;;;;5053669;28;20037;-67
2022/09/10 00:34:43;;;;;;;40.22;29.02;;;15.20;99.90;;;;;;5052311;28;20448;-67
2022/09/10 00:37:08;;;;;;;42.90;30.48;;;15.30;99.90;;;;;;5053074;28;20088;-67
2022/09/10 00:39:34;;;;;;;41.80;27.67;;;15.30;99.90;;;;;;5054927;28;20037;-66
2022/09/10 00:42:00;;;;;;;43.47;28.23;;;15.30;99.90;;;;;;5052911;28;20051;-66
2022/09/10 00:44:38;;;;;;;42.20;30.35;;;15.40;99.90;;;;;;5053965;28;20047;-66
2022/09/10 00:47:23;;;;;;;42.97;31.15;;;15.30;99.90;;;;;;5053630;28;20041;-67
2022/09/10 00:50:24;;;;;;;43.67;29.85;;;15.40;99.90;;;;;;5052209;28;20387;-66
2022/09/10 00:52:59;;;;;;;46.97;30.70;;;15.20;99.90;;;;;;5028848;28;20483;-69
2022/09/10 00:55:25;;;;;;;51.33;33.83;;;15.30;99.90;;;;;;5051288;28;20460;-67
2022/09/10 00:57:54;;;;;;;53.15;35.58;;;15.30;99.90;;;;;;5053263;28;20042;-66
2022/09/10 01:00:20;;;;;;;48.25;33.92;;;15.30;99.90;;;;;;5051444;28;20041;-67
2022/09/10 01:02:46;;;;;;;45.38;32.75;;;15.40;99.90;;;;;;5051544;28;20056;-68
2022/09/10 01:05:13;;;;;;;50.92;34.78;;;15.30;99.90;;;;;;5045257;28;20042;-67
2022/09/10 01:07:39;;;;;;;52.85;33.55;;;15.20;99.90;;;;;;5037309;28;20182;-67
2022/09/10 01:10:10;;;;;;;40.60;30.77;;;15.30;99.90;;;;;;5036111;28;20507;-67
2022/09/10 01:12:51;;;;;;;45.97;32.90;;;15.30;99.90;;;;;;5036219;28;20056;-67
2022/09/10 01:15:26;;;;;;;48.38;34.33;;;15.30;99.90;;;;;;5036073;28;20474;-69
2022/09/10 01:18:32;;;;;;;46.83;30.98;;;15.20;99.90;;;;;;5038045;28;20041;-67
2022/09/10 01:21:09;;;;;;;44.30;30.42;;;15.40;99.90;;;;;;5036258;28;20459;-68
2022/09/10 01:23:53;;;;;;;42.20;31.60;;;15.30;99.90;;;;;;5035973;28;20487;-68
2022/09/10 01:26:44;;;;;;;45.85;32.95;;;15.30;99.90;;;;;;5035931;28;20061;-67
2022/09/10 01:29:18;;;;;;;45.85;34.08;;;15.30;99.90;;;;;;5035694;28;20080;-67
2022/09/10 01:31:57;;;;;;;41.63;31.02;;;15.20;99.90;;;;;;5036852;28;20052;-68
2022/09/10 01:34:28;;;;;;;45.70;32.67;;;15.30;99.90;;;;;;5036823;28;20038;-67
2022/09/10 01:36:59;;;;;;;42.65;32.70;;;15.10;99.90;;;;;;5036153;28;20064;-67
2022/09/10 01:39:26;;;;;;;44.15;31.10;;;15.10;99.90;;;;;;5036856;28;20426;-67
2022/09/10 01:41:53;;;;;;;40.38;29.70;;;15.30;99.90;;;;;;5036841;28;20064;-67
2022/09/10 01:44:57;;;;;;;42.30;31.63;;;15.10;99.90;;;;;;5035258;28;20049;-68
2022/09/10 01:47:47;;;;;;;47.53;32.72;;;15.10;99.90;;;;;;4994113;28;20049;-66
2022/09/10 01:50:18;;;;;;;45.90;31.85;;;15.20;99.90;;;;;;4984376;28;20133;-68
2022/09/10 01:52:43;;;;;;;40.67;30.70;;;15.20;99.90;;;;;;5022833;28;20543;-68
2022/09/10 01:55:30;;;;;;;47.25;32.03;;;15.20;99.90;;;;;;5036123;28;20158;-67
2022/09/10 01:58:08;;;;;;;43.58;32.30;;;15.30;99.90;;;;;;5035651;28;20075;-68
2022/09/10 02:00:37;;;;;;;45.50;33.70;;;15.10;99.90;;;;;;5052067;28;20345;-68
2022/09/10 02:03:10;;;;;;;52.88;34.13;;;15.20;99.90;;;;;;5050924;28;20053;-67
2022/09/10 02:05:39;;;;;;;53.72;35.63;;;15.10;99.90;;;;;;5052144;28;20037;-67
2022/09/10 02:08:10;;;;;;;54.03;35.28;;;15.20;99.90;;;;;;5051918;28;20519;-66
2022/09/10 02:11:00;;;;;;;52.70;36.28;;;15.20;99.90;;;;;;5050722;28;20187;-67
2022/09/10 02:13:29;;;;;;;50.40;34.83;;;15.20;99.90;;;;;;5040334;28;20060;-68
2022/09/10 02:15:55;;;;;;;46.28;34.13;;;15.10;99.90;;;;;;5035560;28;20120;-68
2022/09/10 02:18:22;;;;;;;52.13;35.45;;;15.10;99.90;;;;;;5036581;28;20029;-67
2022/09/10 02:20:50;;;;;;;56.67;35.13;;;15.10;99.90;;;;;;5036298;28;20041;-67
2022/09/10 02:23:21;;;;;;;50.28;36.42;;;15.20;99.90;;;;;;5049557;28;20095;-68
2022/09/10 02:25:48;;;;;;;53.97;35.80;;;15.10;99.90;;;;;;5037305;28;20125;-67
2022/09/10 02:28:14;;;;;;;45.83;34.15;;;15.10;99.90;;;;;;5039921;28;20099;-67
2022/09/10 02:30:39;;;;;;;56.45;36.65;;;15.20;99.90;;;;;;5038849;28;20055;-68
2022/09/10 02:33:05;;;;;;;56.45;38.80;;;15.10;99.90;;;;;;5039825;28;20049;-67
2022/09/10 02:35:31;;;;;;;59.83;36.47;;;15.10;99.90;;;;;;5038879;28;20037;-67
2022/09/10 02:37:57;;;;;;;61.28;40.03;;;15.20;99.90;;;;;;5039486;28;20456;-67
2022/09/10 02:40:23;;;;;;;60.53;38.67;;;15.10;99.90;;;;;;5039683;28;20136;-68
2022/09/10 02:42:49;;;;;;;57.78;38.97;;;15.10;99.90;;;;;;5021442;28;20434;-66
2022/09/10 02:45:15;;;;;;;61.10;41.17;;;15.00;99.90;;;;;;5039624;28;20037;-66
2022/09/10 02:47:41;;;;;;;67.10;39.78;;;15.20;99.90;;;;;;5039224;28;20077;-69
2022/09/10 02:50:26;;;;;;;54.30;38.33;;;15.10;99.90;;;;;;5038837;28;20061;-69
2022/09/10 02:52:52;;;;;;;62.97;41.38;;;15.00;99.90;;;;;;5039207;28;20042;-67
2022/09/10 02:55:18;;;;;;;56.05;38.80;;;15.10;99.90;;;;;;5039464;28;20060;-66
2022/09/10 02:57:44;;;;;;;58.33;40.42;;;15.10;99.90;;;;;;5038424;28;20089;-67
2022/09/10 03:00:10;;;;;;;57.95;39.08;;;15.00;99.90;;;;;;5039602;28;20122;-67
2022/09/10 03:02:35;;;;;;;63.92;40.85;;;15.00;99.90;;;;;;5038361;28;20120;-68
2022/09/10 03:05:03;;;;;;;64.90;42.33;;;15.10;99.90;;;;;;5038925;28;20120;-67
2022/09/10 03:07:30;;;;;;;60.53;41.08;;;15.10;99.90;;;;;;5039124;28;20041;-67
2022/09/10 03:09:56;;;;;;;57.97;39.08;;;14.90;99.90;;;;;;5038089;28;20106;-67
2022/09/10 03:12:21;;;;;;;59.17;41.40;;;15.00;99.90;;;;;;5039212;28;20065;-67
2022/09/10 03:14:49;;;;;;;77.43;42.70;;;15.00;99.90;;;;;;5039376;28;20123;-69
2022/09/10 03:17:15;;;;;;;63.00;42.55;;;15.00;99.90;;;;;;5038135;28;20494;-66
2022/09/10 03:19:40;;;;;;;63.80;42.15;;;14.90;99.90;;;;;;5039099;28;20038;-68
2022/09/10 03:22:06;;;;;;;61.55;41.17;;;15.00;99.90;;;;;;5037932;28;20060;-67
2022/09/10 03:24:31;;;;;;;70.07;44.63;;;14.90;99.90;;;;;;5038834;28;20073;-67
2022/09/10 03:26:57;;;;;;;60.30;39.85;;;14.90;99.90;;;;;;5039111;28;20057;-66
2022/09/10 03:29:23;;;;;;;69.22;45.63;;;14.90;99.90;;;;;;5037359;28;20068;-66
2022/09/10 03:31:50;;;;;;;65.47;43.10;;;15.00;99.90;;;;;;5038876;28;20120;-67
2022/09/10 03:34:17;;;;;;;69.53;45.65;;;14.90;99.90;;;;;;5038649;28;20483;-69
2022/09/10 03:36:46;;;;;;;63.55;43.30;;;14.80;99.90;;;;;;5054323;28;20052;-67
2022/09/10 03:39:12;;;;;;;72.88;44.20;;;14.80;99.90;;;;;;5052450;28;20044;-67
2022/09/10 03:41:38;;;;;;;66.72;43.90;;;14.90;99.90;;;;;;5054152;28;20040;-66
2022/09/10 03:44:04;;;;;;;67.70;44.63;;;14.90;99.90;;;;;;5053734;28;20118;-69
2022/09/10 03:46:30;;;;;;;68.78;44.85;;;14.80;99.90;;;;;;5052849;28;20425;-67
2022/09/10 03:48:56;;;;;;;67.55;43.40;;;14.80;99.90;;;;;;5054654;28;20128;-67
2022/09/10 03:51:22;;;;;;;64.63;43.72;;;14.90;99.90;;;;;;5052717;28;20371;-68
2022/09/10 03:53:47;;;;;;;61.00;42.60;;;14.80;99.90;;;;;;5052809;28;20167;-68
2022/09/10 03:56:14;;;;;;;67.82;44.45;;;14.70;99.90;;;;;;5054572;28;20119;-68
2022/09/10 03:58:39;;;;;;;59.58;43.58;;;14.90;99.90;;;;;;5052703;28;20048;-67
2022/09/10 04:01:05;;;;;;;71.28;45.67;;;14.80;99.90;;;;;;5054301;28;20049;-67
2022/09/10 04:03:31;;;;;;;56.97;40.50;;;14.80;99.90;;;;;;5052847;28;20037;-68
2022/09/10 04:05:57;;;;;;;69.10;41.75;;;14.90;99.90;;;;;;5052632;28;20363;-68
2022/09/10 04:08:23;;;;;;;71.32;45.88;;;14.90;99.90;;;;;;5054127;28;20537;-68
2022/09/10 04:10:48;;;;;;;79.43;45.15;;;15.00;99.90;;;;;;5052342;28;20398;-69
2022/09/10 04:13:14;;;;;;;67.93;43.38;;;14.90;99.90;;;;;;5052774;28;20052;-66
2022/09/10 04:15:43;;;;;;;67.07;43.47;;;14.90;99.90;;;;;;5054053;28;20470;-66
2022/09/10 04:18:10;;;;;;;67.30;43.40;;;15.00;99.90;;;;;;5052203;28;20452;-67
2022/09/10 04:20:36;;;;;;;61.78;44.47;;;15.10;99.90;;;;;;5053587;28;20048;-69
2022/09/10 04:23:04;;;;;;;63.92;43.88;;;15.00;99.90;;;;;;5052457;28;20040;-67
2022/09/10 04:25:29;;;;;;;66.65;44.13;;;14.90;99.90;;;;;;5051867;28;20357;-66
2022/09/10 04:27:55;;;;;;;60.67;42.15;;;15.00;99.90;;;;;;5054004;28;20112;-68
2022/09/10 04:30:21;;;;;;;59.08;40.83;;;14.90;99.90;;;;;;5052102;28;20518;-68
2022/09/10 04:32:46;;;;;;;67.25;45.08;;;15.00;99.90;;;;;;5052080;28;20046;-67
2022/09/10 04:35:14;;;;;;;57.17;41.95;;;15.10;99.90;;;;;;5053607;28;20090;-67
2022/09/10 04:37:40;;;;;;;62.10;43.88;;;15.00;99.90;;;;;;5051982;28;20112;-68
2022/09/10 04:40:08;;;;;;;59.40;43.42;;;15.10;99.90;;;;;;5035852;28;20045;-66
2022/09/10 04:42:34;;;;;;;62.60;43.83;;;15.00;99.90;;;;;;5052583;28;20036;-67
2022/09/10 04:44:59;;;;;;;61.65;43.15;;;15.00;99.90;;;;;;5052042;28;20120;-67
2022/09/10 04:47:25;;;;;;;53.42;39.80;;;15.10;99.90;;;;;;5053468;28;20036;-68
2022/09/10 04:49:50;;;;;;;76.63;43.88;;;15.10;99.90;;;;;;5051238;28;20045;-68
2022/09/10 04:52:16;;;;;;;65.80;42.58;;;15.10;99.90;;;;;;5051679;28;20482;-67
2022/09/10 04:54:42;;;;;;;62.35;42.88;;;15.20;99.90;;;;;;5042367;28;20106;-67
2022/09/10 04:57:07;;;;;;;63.67;41.22;;;15.00;99.90;;;;;;5051477;28;20037;-68
2022/09/10 04:59:33;;;;;;;74.35;45.58;;;15.20;99.90;;;;;;5035705;28;20516;-67
2022/09/10 05:02:00;;;;;;;71.53;46.83;;;15.10;99.90;;;;;;5051548;28;20052;-68
2022/09/10 05:04:26;;;;;;;78.78;48.30;;;15.10;99.90;;;;;;5051532;28;20044;-68
2022/09/10 05:06:52;;;;;;;58.80;41.20;;;15.20;99.90;;;;;;5053378;28;20079;-67
2022/09/10 05:09:19;;;;;;;53.97;40.58;;;15.10;99.90;;;;;;5034111;28;20041;-67
2022/09/10 05:11:48;;;;;;;59.50;40.53;;;15.10;99.90;;;;;;5051895;28;20053;-67
2022/09/10 05:14:14;;;;;;;64.50;44.05;;;15.20;99.90;;;;;;5036251;28;20064;-67
2022/09/10 05:16:40;;;;;;;53.63;41.05;;;15.20;99.90;;;;;;5036950;28;20037;-67
2022/09/10 05:19:06;;;;;;;61.80;43.85;;;15.10;99.90;;;;;;5036050;28;20382;-68
2022/09/10 05:21:32;;;;;;;59.60;42.25;;;15.20;99.90;;;;;;5037179;28;20030;-66
2022/09/10 05:23:57;;;;;;;54.72;41.25;;;15.10;99.90;;;;;;5036968;28;20052;-66
2022/09/10 05:26:24;;;;;;;54.20;40.55;;;15.20;99.90;;;;;;5035845;28;20057;-67
2022/09/10 05:28:52;;;;;;;59.40;41.58;;;15.10;99.90;;;;;;5036754;28;20041;-67
2022/09/10 05:31:18;;;;;;;59.25;41.38;;;15.20;99.90;;;;;;5036784;28;20057;-68
2022/09/10 05:33:45;;;;;;;67.43;43.40;;;15.10;99.90;;;;;;5035718;28;20063;-67
2022/09/10 05:36:10;;;;;;;63.38;42.50;;;15.10;99.90;;;;;;5036804;28;20080;-68
2022/09/10 05:38:36;;;;;;;53.60;39.53;;;15.20;99.90;;;;;;5035783;28;20061;-68
2022/09/10 05:41:02;;;;;;;57.13;39.80;;;15.20;99.90;;;;;;5036807;28;20084;-68
2022/09/10 05:43:27;;;;;;;62.60;40.53;;;15.20;99.90;;;;;;5036789;28;20048;-67
2022/09/10 05:45:53;;;;;;;59.20;41.55;;;15.10;99.90;;;;;;5035536;28;20141;-66
2022/09/10 05:48:20;;;;;;;55.28;38.42;;;15.20;99.90;;;;;;5036716;28;20080;-68
2022/09/10 05:50:45;;;;;;;60.92;42.47;;;15.20;99.90;;;;;;5038220;28;20056;-67
2022/09/10 05:53:12;;;;;;;61.30;41.60;;;15.20;99.90;;;;;;5052541;28;20033;-67
2022/09/10 05:55:38;;;;;;;65.90;44.33;;;15.10;99.90;;;;;;5051131;28;20060;-69
2022/09/10 05:58:03;;;;;;;61.80;43.83;;;15.20;99.90;;;;;;5052924;28;20048;-67
2022/09/10 06:00:29;;;;;;;63.85;41.72;;;15.20;99.90;;;;;;5051078;28;20037;-66
2022/09/10 06:02:56;;;;;;;60.97;40.90;;;15.20;99.90;;;;;;5054687;28;20467;-69
2022/09/10 06:05:22;;;;;;;54.30;40.80;;;15.20;99.90;;;;;;5056372;28;20444;-68
2022/09/10 06:07:48;;;;;;;58.33;40.78;;;15.20;99.90;;;;;;5054965;28;20160;-66
2022/09/10 06:10:14;;;;;;;59.35;41.58;;;15.40;99.90;;;;;;5055290;28;20068;-67
2022/09/10 06:12:46;;;;;;;59.60;40.22;;;15.30;99.90;;;;;;5056367;28;20060;-67
2022/09/10 06:15:13;;;;;;;60.33;40.95;;;15.30;99.90;;;;;;5054771;28;20044;-67
2022/09/10 06:17:39;;;;;;;54.20;39.40;;;15.30;99.90;;;;;;5055906;28;20092;-67
2022/09/10 06:20:05;;;;;;;61.50;41.25;;;15.30;99.90;;;;;;5055129;28;20396;-67
2022/09/10 06:22:30;;;;;;;58.05;38.63;;;15.30;99.90;;;;;;5054521;28;20037;-67
2022/09/10 06:24:56;;;;;;;61.65;41.42;;;15.30;99.90;;;;;;5056275;28;20075;-68
2022/09/10 06:27:22;;;;;;;60.72;41.10;;;15.30;99.90;;;;;;5054411;28;20148;-67
2022/09/10 06:29:48;;;;;;;60.25;39.45;;;15.30;99.90;;;;;;5053921;28;20483;-67
2022/09/10 06:32:14;;;;;;;51.28;36.83;;;15.40;99.90;;;;;;5056248;28;20056;-68
2022/09/10 06:34:39;;;;;;;49.55;36.28;;;15.40;99.90;;;;;;5054335;28;20041;-68
2022/09/10 06:37:05;;;;;;;59.60;39.08;;;15.40;99.90;;;;;;5056005;28;20120;-67
2022/09/10 06:39:31;;;;;;;56.30;39.50;;;15.50;99.90;;;;;;5054846;28;20419;-68
2022/09/10 06:41:56;;;;;;;51.00;36.65;;;15.50;99.90;;;;;;5036579;28;20383;-67
2022/09/10 06:44:22;;;;;;;58.75;38.03;;;15.70;99.90;;;;;;5056184;28;20045;-67
2022/09/10 06:46:48;;;;;;;51.85;37.15;;;15.60;99.90;;;;;;5053976;28;20029;-68
2022/09/10 06:49:14;;;;;;;47.35;34.70;;;15.70;99.90;;;;;;5055012;28;20443;-67
2022/09/10 06:51:40;;;;;;;58.53;38.63;;;15.70;99.90;;;;;;5055430;28;20053;-67
2022/09/10 06:54:06;;;;;;;47.90;35.25;;;15.80;99.90;;;;;;5054331;28;20033;-67
2022/09/10 06:56:32;;;;;;;54.15;37.67;;;15.80;99.90;;;;;;5056238;28;20067;-68
2022/09/10 06:58:58;;;;;;;50.28;34.70;;;15.70;99.90;;;;;;5054329;28;20052;-68
2022/09/10 07:01:24;;;;;;;50.47;38.30;;;15.80;99.90;;;;;;5054221;28;20371;-67
2022/09/10 07:04:00;;;;;;;46.92;34.20;;;15.70;99.90;;;;;;5055607;28;20060;-68
2022/09/10 07:06:27;;;;;;;44.00;33.28;;;15.90;99.90;;;;;;5053853;28;20076;-67
2022/09/10 07:08:57;;;;;;;50.10;34.25;;;15.80;99.90;;;;;;5053700;28;20041;-67
2022/09/10 07:11:24;;;;;;;52.28;35.42;;;15.80;99.90;;;;;;5055135;28;20044;-67
2022/09/10 07:13:51;;;;;;;47.60;35.22;;;15.80;99.90;;;;;;5049955;28;20045;-68
2022/09/10 07:16:22;;;;;;;45.30;33.00;;;15.80;99.90;;;;;;5021171;28;20423;-67
2022/09/10 07:18:53;;;;;;;46.20;33.20;;;15.90;99.90;;;;;;5010459;28;20075;-68
2022/09/10 07:21:20;;;;;;;44.47;32.25;;;16.00;99.90;;;;;;5053616;28;20041;-67
2022/09/10 07:23:50;;;;;;;42.20;32.08;;;16.00;99.90;;;;;;5053924;28;20055;-67
2022/09/10 07:26:18;;;;;;;44.67;33.85;;;15.90;99.90;;;;;;5050455;28;20478;-67
2022/09/10 07:28:44;;;;;;;48.50;35.15;;;15.90;99.90;;;;;;5053261;28;20040;-67
2022/09/10 07:31:26;;;;;;;45.47;32.17;;;16.00;99.90;;;;;;5054360;28;20053;-67
2022/09/10 07:33:54;;;;;;;41.53;32.28;;;16.10;99.90;;;;;;5037828;28;20056;-67
2022/09/10 07:36:20;;;;;;;42.03;30.75;;;16.10;99.90;;;;;;5038134;28;20456;-67
2022/09/10 07:38:46;;;;;;;41.10;30.45;;;16.10;99.90;;;;;;5038297;28;20108;-69
2022/09/10 07:41:14;;;;;;;43.72;32.00;;;16.20;99.90;;;;;;5037806;28;20033;-68
2022/09/10 07:43:41;;;;;;;41.67;30.83;;;16.30;99.90;;;;;;5049933;28;20127;-69
2022/09/10 07:46:11;;;;;;;44.15;32.40;;;16.40;99.90;;;;;;5054358;28;20060;-68
2022/09/10 07:48:37;;;;;;;40.33;31.92;;;16.40;99.90;;;;;;5053763;28;20120;-67
2022/09/10 07:51:05;;;;;;;42.03;30.85;;;16.40;99.90;;;;;;5052694;28;20048;-68
2022/09/10 07:53:31;;;;;;;39.45;30.70;;;16.40;99.90;;;;;;5036935;28;20040;-69
2022/09/10 07:56:06;;;;;;;45.72;32.67;;;16.50;99.90;;;;;;5052791;28;20040;-68
2022/09/10 07:58:34;;;;;;;43.17;32.40;;;16.70;99.90;;;;;;5051943;28;20037;-68
2022/09/10 08:01:01;;;;;;;44.78;31.13;;;16.70;99.90;;;;;;5054597;28;20340;-70
2022/09/10 08:03:27;;;;;;;34.13;27.15;;;16.70;99.90;;;;;;5052595;28;20112;-68
2022/09/10 08:05:54;;;;;;;36.78;29.23;;;16.70;99.90;;;;;;5052529;28;20053;-69
2022/09/10 08:08:20;;;;;;;33.45;27.17;;;16.80;99.90;;;;;;5054291;28;20048;-67
2022/09/10 08:10:47;;;;;;;36.95;28.58;;;16.90;99.90;;;;;;5052345;28;20055;-68
2022/09/10 08:13:13;;;;;;;33.47;26.65;;;16.90;99.90;;;;;;5053174;28;20051;-68
2022/09/10 08:15:45;;;;;;;39.40;28.70;;;16.90;99.90;;;;;;5053681;28;20048;-69
2022/09/10 08:18:12;;;;;;;37.95;27.67;;;17.00;99.90;;;;;;5051402;28;20049;-68
2022/09/10 08:20:39;;;;;;;36.22;26.83;;;17.10;99.90;;;;;;5051167;28;20385;-68
2022/09/10 08:23:05;;;;;;;36.00;28.08;;;17.20;99.90;;;;;;5052233;28;20049;-67
2022/09/10 08:25:32;;;;;;;32.30;25.98;;;17.10;99.90;;;;;;5052026;28;20057;-68
2022/09/10 08:27:59;;;;;;;32.08;27.73;;;17.30;99.90;;;;;;5054018;28;20522;-68
2022/09/10 08:30:25;;;;;;;35.40;25.27;;;17.20;99.90;;;;;;5051991;28;20041;-69
2022/09/10 08:32:51;;;;;;;34.67;24.02;;;17.30;99.90;;;;;;5052190;28;20114;-68
2022/09/10 08:35:18;;;;;;;32.05;25.13;;;17.20;99.90;;;;;;5053760;28;20511;-70
2022/09/10 08:37:43;;;;;;;32.92;25.35;;;17.40;99.90;;;;;;5052046;28;20069;-67
2022/09/10 08:40:10;;;;;;;32.45;26.23;;;17.50;99.90;;;;;;5053301;28;20167;-70
2022/09/10 08:42:44;;;;;;;28.98;25.67;;;17.60;99.90;;;;;;5052783;28;20041;-68
2022/09/10 08:45:22;;;;;;;;;;;17.70;99.90;;;;;;5052222;28;20518;-69
2022/09/10 08:48:15;;;;;;;27.95;24.23;;;17.70;99.90;;;;;;5043087;28;19928;-68
2022/09/10 08:50:47;;;;;;;28.00;23.27;;;17.70;99.90;;;;;;5036555;28;20042;-69
2022/09/10 08:53:39;;;;;;;30.67;23.75;;;17.70;99.90;;;;;;5036438;28;20041;-67
2022/09/10 08:56:13;;;;;;;31.00;25.15;;;17.80;99.90;;;;;;5029268;28;20060;-68
2022/09/10 08:58:55;;;;;;;30.48;23.40;;;17.70;99.90;;;;;;5037233;28;20060;-68
2022/09/10 09:01:59;;;;;;;30.35;24.10;;;17.80;99.90;;;;;;5037117;28;20061;-68
2022/09/10 09:04:51;;;;;;;31.25;24.85;;;17.70;99.90;;;;;;5003992;28;20183;-67
2022/09/10 09:07:19;;;;;;;30.90;23.38;;;17.80;99.90;;;;;;5037061;28;20045;-69
2022/09/10 09:09:50;;;;;;;29.27;23.33;;;17.70;99.90;;;;;;5036001;28;20092;-68
2022/09/10 09:12:49;;;;;;;32.15;22.90;;;17.80;99.90;;;;;;5036877;28;20056;-69
2022/09/10 09:15:20;;;;;;;27.73;24.15;;;17.70;99.90;;;;;;5037116;28;20398;-67
2022/09/10 09:18:11;;;;;;;27.92;24.33;;;17.70;99.90;;;;;;5036985;28;20099;-68
2022/09/10 09:20:47;;;;;;;32.78;24.80;;;17.70;99.90;;;;;;5035755;28;20443;-68
2022/09/10 09:23:21;;;;;;;32.72;24.77;;;17.90;99.90;;;;;;5052434;28;20110;-68
2022/09/10 09:25:55;;;;;;;29.88;24.60;;;17.70;99.90;;;;;;5051359;28;20053;-67
2022/09/10 09:28:35;;;;;;;28.73;23.60;;;17.90;99.90;;;;;;5051200;28;20048;-68
2022/09/10 09:31:09;;;;;;;29.42;23.42;;;17.80;99.90;;;;;;5052893;28;20128;-69
2022/09/10 09:33:36;;;;;;;29.95;24.20;;;17.90;99.90;;;;;;5051754;28;20124;-68
2022/09/10 09:36:03;;;;;;;26.33;23.50;;;17.90;99.90;;;;;;5054200;28;20099;-69
2022/09/10 09:38:37;;;;;;;30.58;25.17;;;17.90;99.90;;;;;;5056944;28;20447;-68
2022/09/10 09:41:40;;;;;;;33.20;26.23;;;17.90;99.90;;;;;;5038146;28;20053;-68
2022/09/10 09:44:23;;;;;;;28.45;24.88;;;17.90;99.90;;;;;;5055958;28;20096;-67
2022/09/10 09:46:48;;;;;;;33.00;25.10;;;18.10;99.90;;;;;;5055367;28;20033;-67
2022/09/10 09:49:15;;;;;;;34.47;27.13;;;18.10;99.90;;;;;;5055845;28;20041;-68
2022/09/10 09:51:45;;;;;;;32.65;25.85;;;18.10;99.90;;;;;;5056602;28;20067;-69
2022/09/10 09:54:16;;;;;;;35.47;27.02;;;18.20;99.90;;;;;;5046141;28;20041;-69
2022/09/10 09:56:45;;;;;;;36.45;25.58;;;18.20;99.90;;;;;;5022264;28;20041;-68
2022/09/10 09:59:27;;;;;;;31.13;25.55;;;18.20;99.90;;;;;;5039710;28;20045;-67
2022/09/10 10:01:58;;;;;;;31.98;25.67;;;18.30;99.90;;;;;;5040582;28;20072;-69
2022/09/10 10:04:26;;;;;;;28.27;24.52;;;18.30;99.90;;;;;;5040448;28;20128;-70
2022/09/10 10:06:59;;;;;;;29.17;25.85;;;18.30;99.90;;;;;;5039342;28;20444;-67
2022/09/10 10:09:29;;;;;;;30.65;24.00;;;18.20;99.90;;;;;;5040265;28;20124;-69
2022/09/10 10:12:04;;;;;;;29.50;24.35;;;18.30;99.90;;;;;;5040288;28;20046;-68
2022/09/10 10:14:38;;;;;;;31.30;25.05;;;18.50;99.90;;;;;;5039363;28;20417;-68
2022/09/10 10:17:23;;;;;;;31.08;23.33;;;18.40;99.90;;;;;;5040363;28;20077;-69
2022/09/10 10:20:15;;;;;;;29.90;24.17;;;18.50;99.90;;;;;;5040039;28;20447;-68
2022/09/10 10:22:42;;;;;;;26.38;23.02;;;18.50;99.90;;;;;;5037209;28;20471;-69
2022/09/10 10:25:37;;;;;;;27.42;22.58;;;18.60;99.90;;;;;;5038948;28;20455;-68
2022/09/10 10:28:12;;;;;;;33.88;25.13;;;18.70;99.90;;;;;;5039109;28;20045;-68
2022/09/10 10:30:39;;;;;;;27.33;23.35;;;18.70;99.90;;;;;;5055085;28;20056;-70
2022/09/10 10:33:17;;;;;;;29.95;25.40;;;18.80;99.90;;;;;;5054331;28;20052;-69
2022/09/10 10:35:47;;;;;;;28.40;23.50;;;18.90;99.90;;;;;;5037700;28;20052;-69
2022/09/10 10:38:24;;;;;;;31.15;25.52;;;18.90;99.90;;;;;;5054834;28;20045;-68
2022/09/10 10:41:26;;;;;;;29.90;23.83;;;19.10;99.90;;;;;;5054255;28;20457;-69
2022/09/10 10:44:16;;;;;;;25.50;22.75;;;19.10;99.90;;;;;;5054062;28;20106;-68
2022/09/10 10:47:15;;;;;;;31.33;23.70;;;19.20;99.90;;;;;;5053209;28;20044;-68
2022/09/10 10:49:52;;;;;;;25.50;22.08;;;19.40;99.90;;;;;;5019889;28;20131;-68
2022/09/10 10:52:45;;;;;;;30.20;22.95;;;19.40;99.90;;;;;;5054516;28;20033;-68
2022/09/10 10:55:22;;;;;;;24.48;21.58;;;19.50;99.90;;;;;;5038393;28;20088;-68
2022/09/10 10:58:21;;;;;;;27.08;20.83;;;19.40;99.90;;;;;;5038329;28;20515;-68
2022/09/10 11:01:20;;;;;;;29.52;22.88;;;19.50;99.90;;;;;;5038314;28;20046;-69
2022/09/10 11:03:59;;;;;;;26.60;22.67;;;19.50;99.90;;;;;;5024548;28;20471;-67
2022/09/10 11:06:34;;;;;;;29.10;21.92;;;19.60;99.90;;;;;;5039463;28;20049;-69
2022/09/10 11:09:15;;;;;;;28.58;21.63;;;19.60;99.90;;;;;;5039427;28;20124;-67
2022/09/10 11:12:05;;;;;;;26.20;21.08;;;19.60;99.90;;;;;;5052150;28;20045;-68
2022/09/10 11:14:44;;;;;;;21.88;19.20;;;19.60;99.90;;;;;;5037969;28;20037;-69
2022/09/10 11:17:29;;;;;;;20.75;17.63;;;19.80;99.90;;;;;;5054572;28;20502;-69
2022/09/10 11:20:29;;;;;;;22.92;17.35;;;19.90;99.90;;;;;;5053492;28;20086;-69
2022/09/10 11:23:17;;;;;;;21.10;18.77;;;20.00;99.90;;;;;;5053448;28;20049;-68
2022/09/10 11:25:53;;;;;;;21.38;17.83;;;20.10;99.90;;;;;;5053120;28;20061;-69
2022/09/10 11:28:26;;;;;;;23.05;17.08;;;20.10;99.90;;;;;;5053543;28;20045;-69
2022/09/10 11:30:59;;;;;;;22.98;16.55;;;20.20;99.90;;;;;;5038094;28;20056;-69
2022/09/10 11:33:38;;;;;;;17.52;15.63;;;20.30;99.90;;;;;;5038784;28;20456;-69
2022/09/10 11:36:31;;;;;;;18.58;14.70;;;20.30;99.90;;;;;;5038930;28;20102;-68
2022/09/10 11:39:19;;;;;;;16.73;12.73;;;20.40;99.90;;;;;;5021412;28;20050;-68
2022/09/10 11:41:47;;;;;;;18.08;12.23;;;20.40;99.90;;;;;;5037965;28;20068;-69
2022/09/10 11:44:41;;;;;;;12.88;11.55;;;20.60;99.90;;;;;;5037941;28;20037;-69
2022/09/10 11:47:46;;;;;;;15.93;12.05;;;20.70;99.90;;;;;;5053397;28;20398;-69
2022/09/10 11:50:35;;;;;;;15.57;12.95;;;20.70;99.90;;;;;;5053556;28;20053;-68
2022/09/10 11:53:06;;;;;;;16.23;12.57;;;20.80;99.90;;;;;;5052551;28;20410;-69
2022/09/10 11:56:10;;;;;;;13.20;11.75;;;20.90;99.90;;;;;;5052562;28;20041;-69
2022/09/10 11:59:16;;;;;;;14.10;11.05;;;21.10;99.90;;;;;;5035901;28;20045;-69
2022/09/10 12:01:48;;;;;;;16.23;11.30;;;21.10;99.90;;;;;;5032231;28;20044;-68
2022/09/10 12:04:29;;;;;;;18.95;12.30;;;21.20;99.90;;;;;;5053878;28;20041;-69
2022/09/10 12:07:36;;;;;;;16.23;12.45;;;21.10;99.90;;;;;;5037329;28;20053;-69
2022/09/10 12:10:18;;;;;;;21.23;14.07;;;21.10;99.90;;;;;;5021163;28;20053;-69
2022/09/10 12:12:49;;;;;;;17.80;13.45;;;21.00;99.90;;;;;;5053521;28;20045;-71
2022/09/10 12:15:21;;;;;;;15.82;12.48;;;20.90;99.90;;;;;;5052136;28;20119;-68
2022/09/10 12:17:54;;;;;;;19.98;14.13;;;20.90;99.90;;;;;;5053207;28;20044;-69
2022/09/10 12:20:31;;;;;;;17.10;14.02;;;20.80;99.90;;;;;;5036847;28;20056;-67
2022/09/10 12:22:57;;;;;;;21.15;16.42;;;20.90;99.90;;;;;;5037835;28;20088;-70
2022/09/10 12:25:27;;;;;;;23.42;18.00;;;20.90;99.90;;;;;;5037784;28;20123;-69
2022/09/10 12:27:56;;;;;;;23.00;18.38;;;20.70;99.90;;;;;;5036925;28;20371;-70
2022/09/10 12:30:33;;;;;;;23.08;19.20;;;20.80;99.90;;;;;;5037814;28;20164;-69
2022/09/10 12:33:20;;;;;;;23.15;17.23;;;20.90;99.90;;;;;;5037778;28;20048;-68
2022/09/10 12:35:50;;;;;;;20.75;16.80;;;21.10;99.90;;;;;;5006246;28;20158;-71
2022/09/10 12:38:53;;;;;;;18.98;15.27;;;21.10;99.90;;;;;;5036720;28;20049;-71
2022/09/10 12:41:21;;;;;;;21.95;14.75;;;21.20;99.90;;;;;;5036641;28;20037;-69
2022/09/10 12:43:47;;;;;;;16.35;14.27;;;21.20;99.90;;;;;;5037561;28;20045;-69
2022/09/10 12:46:12;;;;;;;17.77;14.18;;;21.20;99.90;;;;;;5036431;28;20368;-69
2022/09/10 12:48:44;;;;;;;19.40;14.13;;;21.30;99.90;;;;;;5037551;28;20041;-69
2022/09/10 12:51:09;;;;;;;15.20;12.32;;;21.50;99.90;;;;;;5037418;28;20063;-68